CheckWX is a tool to help pilots better visualize weather data.  It is not intended as a substitute for an official pre-flight weather briefing.

05:41:35 UTC

KBGM TAF
Greater Binghamton / Edwin A Link Field Airport
Binghamton, New York, USA
KBGM 242327Z 2500/2524 25007KT P6SM OVC070 FM250700 32007KT P6SM OVC035 FM250800 35010KT P6SM OVC025 FM251200 34010KT P6SM SKC

Mar-25@
00:00 UTC

Mar-25 @ 00:00 UTC

Mar-25@
07:00 UTC

Mar-25 @ 07:00 UTC

KBGM 242327Z 2500/2524 25007KT P6SM OVC070
Wind
  • 250° at 7 KTS
Cloud Levels
  • Overcast at 7,000' AGL

Mar-25@
07:00 UTC

Mar-25 @ 07:00 UTC

Mar-25@
08:00 UTC

Mar-25 @ 08:00 UTC

FM250700 32007KT P6SM OVC035

From

From Standard forecast or significant change

Wind
  • 320° at 7 KTS
Cloud Levels
  • Overcast at 3,500' AGL

Mar-25@
08:00 UTC

Mar-25 @ 08:00 UTC

Mar-25@
12:00 UTC

Mar-25 @ 12:00 UTC

FM250800 35010KT P6SM OVC025

From

From Standard forecast or significant change

Wind
  • 350° at 10 KTS
Cloud Levels
  • Overcast at 2,500' AGL

Mar-25@
12:00 UTC

Mar-25 @ 12:00 UTC

Mar-26@
00:00 UTC

Mar-26 @ 00:00 UTC

FM251200 34010KT P6SM SKC

From

From Standard forecast or significant change

Wind
  • 340° at 10 KTS
Cloud Levels
  • Clear skies